createdAt,value
2023-03-23T15:59:16.235Z,50.30
2023-03-23T16:01:45.251Z,52.70
2023-03-23T16:04:18.726Z,60.20
2023-03-23T16:06:49.455Z,58.80
2023-03-23T16:09:19.882Z,58.20
2023-03-23T16:11:48.587Z,58.30
2023-03-23T16:14:17.457Z,59.70
2023-03-23T16:16:50.483Z,60.80
2023-03-23T16:19:24.464Z,65.50
2023-03-23T16:21:54.548Z,68.30
2023-03-23T16:24:23.098Z,72.30
2023-03-23T16:26:51.648Z,71.20
2023-03-23T16:29:34.364Z,74.50
2023-03-23T16:32:08.804Z,76.40
2023-03-23T16:34:38.382Z,77.50
2023-03-23T16:37:09.430Z,72.60
2023-03-23T16:39:38.255Z,77.10
2023-03-23T16:42:07.008Z,77.40
2023-03-23T16:44:35.773Z,78.70
2023-03-23T16:47:04.384Z,80.00
2023-03-23T16:49:32.970Z,82.10
2023-03-23T16:52:01.615Z,82.80
2023-03-23T16:54:31.597Z,84.90
2023-03-23T16:57:00.192Z,88.00
2023-03-23T16:59:29.505Z,90.50
2023-03-23T17:02:03.353Z,91.40
2023-03-23T17:04:32.739Z,91.80
2023-03-23T17:07:01.418Z,91.50
2023-03-23T17:09:31.815Z,92.30
2023-03-23T17:12:00.492Z,92.20
2023-03-23T17:14:29.427Z,92.70
2023-03-23T17:16:58.011Z,92.30
2023-03-23T17:19:26.655Z,92.60
2023-03-23T17:21:55.218Z,92.40
2023-03-23T17:24:23.836Z,92.90
2023-03-23T17:26:53.736Z,93.10
2023-03-23T17:29:23.125Z,93.60
2023-03-23T17:31:52.278Z,94.60
2023-03-23T17:34:20.998Z,94.40
2023-03-23T17:36:49.591Z,95.50
2023-03-23T17:39:18.148Z,95.40
2023-03-23T17:41:46.742Z,94.70
2023-03-23T17:44:16.688Z,94.90
2023-03-23T17:46:45.258Z,95.30
2023-03-23T17:49:13.907Z,94.60
2023-03-23T17:51:44.034Z,94.00
2023-03-23T17:54:13.148Z,93.50
2023-03-23T17:56:41.792Z,93.60
2023-03-23T17:59:10.357Z,93.10
2023-03-23T18:01:40.363Z,92.40
2023-03-23T18:04:08.953Z,91.70
2023-03-23T18:06:37.523Z,91.60
2023-03-23T18:09:06.095Z,91.40
2023-03-23T18:11:34.744Z,90.60
2023-03-23T18:14:03.392Z,90.60
2023-03-23T18:16:32.015Z,90.20
2023-03-23T18:19:02.097Z,89.60
2023-03-23T18:21:30.765Z,90.00
2023-03-23T18:24:00.158Z,89.10
2023-03-23T18:26:29.852Z,89.00
2023-03-23T18:28:58.429Z,87.90
2023-03-23T18:31:27.092Z,87.20
2023-03-23T18:33:55.895Z,86.30
2023-03-23T18:36:28.374Z,84.80
2023-03-23T18:38:58.232Z,83.80
2023-03-23T18:41:27.372Z,84.10
2023-03-23T18:43:57.542Z,83.60
2023-03-23T18:46:26.772Z,84.10
2023-03-23T18:48:55.817Z,84.30
2023-03-23T18:51:26.285Z,84.70
2023-03-23T19:19:43.049Z,80.70
2023-03-23T19:22:12.493Z,78.40
2023-03-23T19:24:41.141Z,78.00
2023-03-23T19:27:09.710Z,77.50
2023-03-23T19:29:38.370Z,77.70
2023-03-23T19:32:07.678Z,76.80
2023-03-23T19:34:36.242Z,77.50
2023-03-23T19:37:10.184Z,77.30
2023-03-23T19:39:41.681Z,77.30
2023-03-23T19:42:11.890Z,74.40
2023-03-23T19:44:41.235Z,73.20
2023-03-23T19:47:10.650Z,72.40
2023-03-23T19:49:39.936Z,72.30
2023-03-23T19:52:12.731Z,71.90
2023-03-23T19:54:42.725Z,70.80
2023-03-23T19:57:12.074Z,71.00
2023-03-23T20:02:53.493Z,69.90
2023-03-23T20:05:37.818Z,69.10
2023-03-23T20:08:09.340Z,68.30
2023-03-23T20:10:38.632Z,65.70
2023-03-23T20:13:14.431Z,65.00
2023-03-23T20:15:43.082Z,63.20
2023-03-23T20:18:14.699Z,63.90
2023-03-23T20:23:40.801Z,62.80
2023-03-23T20:26:12.419Z,62.60
2023-03-23T20:28:42.724Z,62.80
2023-03-23T20:31:16.947Z,63.00
2023-03-23T20:34:00.689Z,63.60
2023-03-23T20:36:34.936Z,64.00
2023-03-23T20:39:08.177Z,64.50
2023-03-23T21:04:15.010Z,65.50
2023-03-23T21:06:44.492Z,66.10
2023-03-23T21:09:13.567Z,66.80
2023-03-23T21:11:42.769Z,67.40
2023-03-23T21:14:13.636Z,67.90
2023-03-23T21:16:42.979Z,68.50
2023-03-23T21:19:14.096Z,69.00
2023-03-23T21:21:56.598Z,69.50
2023-03-23T21:27:38.915Z,69.00
2023-03-23T21:30:08.903Z,69.20
2023-03-23T21:32:37.459Z,69.40
2023-03-23T21:35:09.094Z,69.70
2023-03-23T21:37:37.873Z,70.40
2023-03-23T21:40:13.035Z,70.40
2023-03-23T21:42:43.147Z,70.80
2023-03-23T21:45:14.036Z,70.30
2023-03-23T21:47:43.103Z,70.60
2023-03-23T21:50:14.024Z,70.80
2023-03-23T21:52:43.488Z,71.80
2023-03-23T21:55:14.180Z,72.60
2023-03-23T21:57:43.671Z,73.40
2023-03-23T22:00:14.985Z,74.90
2023-03-23T22:02:43.812Z,76.50
2023-03-23T22:05:13.896Z,77.30
2023-03-23T22:07:44.082Z,79.50
2023-03-23T22:10:12.836Z,84.00
2023-03-23T22:12:41.823Z,84.90
2023-03-23T22:15:15.205Z,87.10
2023-03-23T22:17:44.057Z,88.10
2023-03-23T22:20:15.656Z,87.60
2023-03-23T22:22:44.243Z,86.60
2023-03-23T22:25:13.538Z,86.20
2023-03-23T22:27:42.879Z,84.90
2023-03-23T22:30:12.762Z,85.20
2023-03-23T22:32:41.434Z,84.80
2023-03-23T22:35:12.608Z,85.50
2023-03-23T22:37:42.618Z,86.20
2023-03-23T22:40:12.022Z,87.00
2023-03-23T22:42:41.327Z,88.80
2023-03-23T22:45:11.090Z,90.40
2023-03-23T22:47:39.775Z,91.40
2023-03-23T22:50:09.861Z,92.40
2023-03-23T22:52:38.473Z,93.50
2023-03-23T22:55:09.832Z,94.30
2023-03-23T22:57:38.423Z,95.00
2023-03-23T23:00:14.209Z,95.40
2023-03-23T23:02:43.302Z,96.10
2023-03-23T23:05:13.316Z,96.50
2023-03-23T23:07:41.953Z,97.60
2023-03-23T23:10:12.112Z,98.20
2023-03-23T23:12:42.474Z,98.30
2023-03-23T23:15:14.569Z,98.60
2023-03-23T23:17:43.365Z,99.00
2023-03-23T23:20:14.211Z,99.60
2023-03-23T23:22:44.516Z,99.90
2023-03-23T23:25:14.999Z,99.30
2023-03-23T23:27:43.571Z,99.10
2023-03-23T23:30:13.596Z,99.20
2023-03-23T23:32:42.960Z,99.30
2023-03-23T23:35:12.911Z,99.60
2023-03-23T23:54:02.940Z,99.90
2023-03-23T23:56:32.001Z,99.90
2023-03-23T23:59:00.616Z,99.90
